Conroy, IA

5:49 AM CDT on August 31, 2014 (GMT -0500)
KIAWILLI3 | Change Station
CLOSE
Current Station
Personal Weather Station
Location: Williamsburg, IA
Elevation: 820 ft
Nearby Weather Stations
Active Advisory: Special Statement

Elev 820 ft 41.66 °N, 92.02 °W | Updated 21 seconds ago

Fog
Fog
65.1 °F
Feels Like 65.1 °F
N
0.0
Wind Variable Wind from SSE
Gusts 0.0 mph

Today
High -- | Low -- °F
--% Chance of Precip.
Yesterday
High -- | Low -- °F
Precip. -- in
6:32 AM 7:42 PM
Waxing Crescent, 30% visible
Pressure 29.90 in
Visibility 1.8 miles
Clouds Clear
Dew Point 62 °F
Humidity 90%
Rainfall 0.00 in
Snow Depth Not available.
UV 0 out of 12
Pollen 5.70 out of 12
Air Quality Not available.
Flu Activity Not available.
SPECI KCID 311045Z 14004KT 1 3/4SM BR CLR 17/17 A2990 RMK AO2 T01670167

More Conditions Fewer Conditions

Pressure 29.90 in
Visibility 1.8 miles
Clouds Clear
Dew Point 62 °F
Humidity 90%
Rainfall 0.00 in
Snow Depth Not available.
UV 0 out of 12
Pollen 5.70 out of 12
Air Quality Not available.
Flu Activity Not available.
SPECI KCID 311045Z 14004KT 1 3/4SM BR CLR 17/17 A2990 RMK AO2 T01670167

More Conditions Fewer Conditions

10-Day Weather Forecast

Almanac

Astronomy

Aug. 31, 2014 Rise Set
Actual Time 6:32 AM CDT 7:42 PM CDT
Civil Twilight 6:04 AM CDT 8:11 PM CDT
Nautical Twilight 5:29 AM CDT 8:45 PM CDT
Astronomical Twilight 4:53 AM CDT 9:21 PM CDT
Moon 12:24 PM CDT 10:52 PM CDT
Length of Visible Light 14h 07m
Length of Day
13h 10m
Tomorrow will be 2m 40s shorter.
Waxing Crescent, 30% of the Moon is Illuminated
Today
Waxing Crescent
Sep 2
First Quarter
Sep 8
Full
Sep 15
Last Quarter
Sep 24
New

Today's Extremes

State Highs State Lows

Community

WunderPhotos

Upload Photos

1,748,837 photos uploaded!

Nearby

Snow Depth

Station Depth Elevation
No new snow has been reported.

Earthquake Activity

City Distance Mag. Time & Date
No recent earthquake activity has been reported nearby.
Minimum magnitude displayed is 2.5.

Coastal Water Temperatures

Place Temperature
No Stations Reporting

Nearby Weather Stations